sensor_id;sensor_type;location;lat;lon;timestamp;P1;durP1;ratioP1;P2;durP2;ratioP2
16033;SDS011;8121;51.418;6.998;2023-02-28T00:02:26;3.60;;;2.87;;
16033;SDS011;8121;51.418;6.998;2023-02-28T00:12:28;1.93;;;1.80;;
16033;SDS011;8121;51.418;6.998;2023-02-28T00:22:31;2.43;;;2.23;;
16033;SDS011;8121;51.418;6.998;2023-02-28T00:32:33;2.83;;;2.63;;
16033;SDS011;8121;51.418;6.998;2023-02-28T00:42:38;5.83;;;2.00;;
16033;SDS011;8121;51.418;6.998;2023-02-28T00:52:41;3.80;;;2.60;;
16033;SDS011;8121;51.418;6.998;2023-02-28T01:02:48;2.10;;;1.90;;
16033;SDS011;8121;51.418;6.998;2023-02-28T01:12:52;4.90;;;2.40;;
16033;SDS011;8121;51.418;6.998;2023-02-28T01:22:58;1.33;;;1.20;;
16033;SDS011;8121;51.418;6.998;2023-02-28T01:33:00;5.27;;;2.13;;
16033;SDS011;8121;51.418;6.998;2023-02-28T01:43:10;2.10;;;1.90;;
16033;SDS011;8121;51.418;6.998;2023-02-28T01:53:21;3.93;;;2.43;;
16033;SDS011;8121;51.418;6.998;2023-02-28T02:03:27;2.30;;;1.60;;
16033;SDS011;8121;51.418;6.998;2023-02-28T02:13:34;5.33;;;2.40;;
16033;SDS011;8121;51.418;6.998;2023-02-28T02:23:56;4.60;;;2.40;;
16033;SDS011;8121;51.418;6.998;2023-02-28T02:34:24;1.60;;;1.50;;
16033;SDS011;8121;51.418;6.998;2023-02-28T02:44:30;2.00;;;1.90;;
16033;SDS011;8121;51.418;6.998;2023-02-28T02:54:34;2.80;;;2.07;;
16033;SDS011;8121;51.418;6.998;2023-02-28T03:04:39;3.27;;;1.93;;
16033;SDS011;8121;51.418;6.998;2023-02-28T03:14:48;2.57;;;1.40;;
16033;SDS011;8121;51.418;6.998;2023-02-28T03:25:04;2.40;;;1.97;;
16033;SDS011;8121;51.418;6.998;2023-02-28T03:35:11;1.53;;;1.43;;
16033;SDS011;8121;51.418;6.998;2023-02-28T03:45:21;1.90;;;1.80;;
16033;SDS011;8121;51.418;6.998;2023-02-28T03:55:27;6.90;;;2.30;;
16033;SDS011;8121;51.418;6.998;2023-02-28T04:05:30;1.50;;;1.40;;
16033;SDS011;8121;51.418;6.998;2023-02-28T04:15:36;2.60;;;1.30;;
16033;SDS011;8121;51.418;6.998;2023-02-28T04:25:41;1.73;;;1.53;;
16033;SDS011;8121;51.418;6.998;2023-02-28T04:35:44;3.90;;;2.10;;
16033;SDS011;8121;51.418;6.998;2023-02-28T04:45:45;2.10;;;1.90;;
16033;SDS011;8121;51.418;6.998;2023-02-28T04:55:48;4.83;;;2.00;;
16033;SDS011;8121;51.418;6.998;2023-02-28T05:05:49;2.13;;;1.93;;
16033;SDS011;8121;51.418;6.998;2023-02-28T05:15:52;2.43;;;1.63;;
16033;SDS011;8121;51.418;6.998;2023-02-28T05:25:54;2.10;;;1.70;;
16033;SDS011;8121;51.418;6.998;2023-02-28T05:35:57;2.33;;;1.80;;
16033;SDS011;8121;51.418;6.998;2023-02-28T05:45:59;2.13;;;1.87;;
16033;SDS011;8121;51.418;6.998;2023-02-28T05:56:04;4.37;;;2.50;;
16033;SDS011;8121;51.418;6.998;2023-02-28T06:06:06;3.80;;;2.07;;
16033;SDS011;8121;51.418;6.998;2023-02-28T06:16:09;7.60;;;2.17;;
16033;SDS011;8121;51.418;6.998;2023-02-28T06:26:11;2.63;;;1.53;;
16033;SDS011;8121;51.418;6.998;2023-02-28T06:36:14;2.93;;;2.13;;
16033;SDS011;8121;51.418;6.998;2023-02-28T06:46:16;2.60;;;2.40;;
16033;SDS011;8121;51.418;6.998;2023-02-28T06:56:19;1.83;;;1.73;;
16033;SDS011;8121;51.418;6.998;2023-02-28T07:06:21;2.07;;;1.87;;
16033;SDS011;8121;51.418;6.998;2023-02-28T07:16:25;2.73;;;2.20;;
16033;SDS011;8121;51.418;6.998;2023-02-28T07:26:26;3.43;;;1.50;;
16033;SDS011;8121;51.418;6.998;2023-02-28T07:36:29;3.50;;;2.10;;
16033;SDS011;8121;51.418;6.998;2023-02-28T07:46:31;2.07;;;1.97;;
16033;SDS011;8121;51.418;6.998;2023-02-28T07:56:37;2.83;;;1.80;;
16033;SDS011;8121;51.418;6.998;2023-02-28T08:06:38;1.53;;;1.43;;
16033;SDS011;8121;51.418;6.998;2023-02-28T08:16:43;2.50;;;2.30;;
16033;SDS011;8121;51.418;6.998;2023-02-28T08:26:45;3.43;;;2.37;;
16033;SDS011;8121;51.418;6.998;2023-02-28T08:36:48;2.93;;;2.27;;
16033;SDS011;8121;51.418;6.998;2023-02-28T08:46:50;9.10;;;2.37;;
16033;SDS011;8121;51.418;6.998;2023-02-28T08:56:53;2.20;;;2.10;;
16033;SDS011;8121;51.418;6.998;2023-02-28T09:06:55;4.60;;;2.50;;
16033;SDS011;8121;51.418;6.998;2023-02-28T09:16:58;2.27;;;2.07;;
16033;SDS011;8121;51.418;6.998;2023-02-28T09:37:40;1.50;;;1.40;;
16033;SDS011;8121;51.418;6.998;2023-02-28T09:47:42;1.40;;;1.30;;
16033;SDS011;8121;51.418;6.998;2023-02-28T09:57:47;2.17;;;1.60;;
16033;SDS011;8121;51.418;6.998;2023-02-28T10:07:54;4.17;;;1.80;;
16033;SDS011;8121;51.418;6.998;2023-02-28T10:18:08;2.03;;;1.83;;
16033;SDS011;8121;51.418;6.998;2023-02-28T10:28:12;1.33;;;1.27;;
16033;SDS011;8121;51.418;6.998;2023-02-28T10:38:23;1.53;;;1.43;;
16033;SDS011;8121;51.418;6.998;2023-02-28T10:48:27;1.83;;;1.63;;
16033;SDS011;8121;51.418;6.998;2023-02-28T10:58:44;1.33;;;1.23;;
16033;SDS011;8121;51.418;6.998;2023-02-28T11:08:54;3.23;;;1.13;;
16033;SDS011;8121;51.418;6.998;2023-02-28T11:19:06;2.63;;;1.30;;
16033;SDS011;8121;51.418;6.998;2023-02-28T11:29:23;1.03;;;1.00;;
16033;SDS011;8121;51.418;6.998;2023-02-28T11:39:28;1.87;;;1.30;;
16033;SDS011;8121;51.418;6.998;2023-02-28T11:49:31;2.00;;;1.90;;
16033;SDS011;8121;51.418;6.998;2023-02-28T11:59:41;5.53;;;2.03;;
16033;SDS011;8121;51.418;6.998;2023-02-28T12:09:54;1.70;;;1.60;;
16033;SDS011;8121;51.418;6.998;2023-02-28T12:20:05;2.13;;;1.93;;
16033;SDS011;8121;51.418;6.998;2023-02-28T12:30:13;2.23;;;1.40;;
16033;SDS011;8121;51.418;6.998;2023-02-28T12:40:21;1.20;;;1.10;;
16033;SDS011;8121;51.418;6.998;2023-02-28T12:50:23;3.00;;;1.50;;
16033;SDS011;8121;51.418;6.998;2023-02-28T13:00:29;2.60;;;1.70;;
16033;SDS011;8121;51.418;6.998;2023-02-28T13:10:37;1.77;;;1.67;;
16033;SDS011;8121;51.418;6.998;2023-02-28T13:20:47;8.17;;;1.50;;
16033;SDS011;8121;51.418;6.998;2023-02-28T13:51:49;2.73;;;2.20;;
16033;SDS011;8121;51.418;6.998;2023-02-28T14:01:59;2.23;;;1.80;;
16033;SDS011;8121;51.418;6.998;2023-02-28T14:22:50;2.60;;;2.40;;
16033;SDS011;8121;51.418;6.998;2023-02-28T14:32:59;1.97;;;1.87;;
16033;SDS011;8121;51.418;6.998;2023-02-28T14:43:17;3.90;;;2.13;;
16033;SDS011;8121;51.418;6.998;2023-02-28T14:53:22;3.17;;;2.00;;
16033;SDS011;8121;51.418;6.998;2023-02-28T15:03:32;2.00;;;1.80;;
16033;SDS011;8121;51.418;6.998;2023-02-28T15:13:36;2.13;;;2.03;;
16033;SDS011;8121;51.418;6.998;2023-02-28T15:23:44;3.63;;;2.10;;
16033;SDS011;8121;51.418;6.998;2023-02-28T15:33:52;7.60;;;2.47;;
16033;SDS011;8121;51.418;6.998;2023-02-28T15:54:29;2.90;;;1.90;;
16033;SDS011;8121;51.418;6.998;2023-02-28T16:04:37;5.87;;;1.93;;
16033;SDS011;8121;51.418;6.998;2023-02-28T16:14:57;4.70;;;1.70;;
16033;SDS011;8121;51.418;6.998;2023-02-28T16:25:00;2.10;;;1.90;;
16033;SDS011;8121;51.418;6.998;2023-02-28T16:35:05;6.43;;;2.43;;
16033;SDS011;8121;51.418;6.998;2023-02-28T16:45:18;3.57;;;2.60;;
16033;SDS011;8121;51.418;6.998;2023-02-28T16:55:22;3.60;;;2.30;;
16033;SDS011;8121;51.418;6.998;2023-02-28T17:05:28;1.97;;;1.80;;
16033;SDS011;8121;51.418;6.998;2023-02-28T17:15:35;2.30;;;2.10;;
16033;SDS011;8121;51.418;6.998;2023-02-28T17:25:38;2.17;;;2.00;;
16033;SDS011;8121;51.418;6.998;2023-02-28T17:35:40;8.00;;;2.70;;
16033;SDS011;8121;51.418;6.998;2023-02-28T17:45:43;3.33;;;2.40;;
16033;SDS011;8121;51.418;6.998;2023-02-28T17:55:45;2.20;;;1.90;;
16033;SDS011;8121;51.418;6.998;2023-02-28T18:05:48;5.33;;;1.60;;
16033;SDS011;8121;51.418;6.998;2023-02-28T18:15:51;4.50;;;2.93;;
16033;SDS011;8121;51.418;6.998;2023-02-28T18:25:54;4.20;;;2.10;;
16033;SDS011;8121;51.418;6.998;2023-02-28T18:35:55;5.93;;;3.07;;
16033;SDS011;8121;51.418;6.998;2023-02-28T18:46:01;2.60;;;2.40;;
16033;SDS011;8121;51.418;6.998;2023-02-28T18:56:04;5.93;;;5.53;;
16033;SDS011;8121;51.418;6.998;2023-02-28T19:06:08;4.03;;;2.97;;
16033;SDS011;8121;51.418;6.998;2023-02-28T19:16:11;1.90;;;1.40;;
16033;SDS011;8121;51.418;6.998;2023-02-28T19:26:16;4.93;;;3.37;;
16033;SDS011;8121;51.418;6.998;2023-02-28T19:36:20;2.87;;;2.53;;
16033;SDS011;8121;51.418;6.998;2023-02-28T19:46:23;4.23;;;3.80;;
16033;SDS011;8121;51.418;6.998;2023-02-28T19:56:25;3.27;;;2.90;;
16033;SDS011;8121;51.418;6.998;2023-02-28T20:06:28;4.00;;;3.10;;
16033;SDS011;8121;51.418;6.998;2023-02-28T20:16:31;4.60;;;3.27;;
16033;SDS011;8121;51.418;6.998;2023-02-28T20:26:34;8.10;;;5.40;;
16033;SDS011;8121;51.418;6.998;2023-02-28T20:36:36;10.13;;;5.47;;
16033;SDS011;8121;51.418;6.998;2023-02-28T20:46:39;4.93;;;2.83;;
16033;SDS011;8121;51.418;6.998;2023-02-28T20:56:42;4.77;;;4.33;;
16033;SDS011;8121;51.418;6.998;2023-02-28T21:06:45;5.13;;;2.47;;
16033;SDS011;8121;51.418;6.998;2023-02-28T21:16:47;5.90;;;3.70;;
16033;SDS011;8121;51.418;6.998;2023-02-28T21:26:50;3.27;;;2.97;;
16033;SDS011;8121;51.418;6.998;2023-02-28T21:36:55;2.90;;;2.60;;
16033;SDS011;8121;51.418;6.998;2023-02-28T21:46:59;4.33;;;3.93;;
16033;SDS011;8121;51.418;6.998;2023-02-28T21:57:01;3.10;;;2.80;;
16033;SDS011;8121;51.418;6.998;2023-02-28T22:07:05;5.20;;;4.40;;
16033;SDS011;8121;51.418;6.998;2023-02-28T22:17:07;4.73;;;4.17;;
16033;SDS011;8121;51.418;6.998;2023-02-28T22:27:13;3.40;;;2.53;;
16033;SDS011;8121;51.418;6.998;2023-02-28T22:37:20;4.90;;;3.80;;
16033;SDS011;8121;51.418;6.998;2023-02-28T22:47:37;5.13;;;3.57;;
16033;SDS011;8121;51.418;6.998;2023-02-28T22:57:39;8.90;;;5.03;;
16033;SDS011;8121;51.418;6.998;2023-02-28T23:07:42;4.40;;;3.70;;
16033;SDS011;8121;51.418;6.998;2023-02-28T23:17:43;8.83;;;5.23;;
16033;SDS011;8121;51.418;6.998;2023-02-28T23:27:47;8.27;;;5.27;;
16033;SDS011;8121;51.418;6.998;2023-02-28T23:37:49;6.20;;;4.27;;
16033;SDS011;8121;51.418;6.998;2023-02-28T23:47:52;5.80;;;4.00;;
16033;SDS011;8121;51.418;6.998;2023-02-28T23:57:53;5.30;;;4.27;;
